Time;durP1;ratioP1;P1;durP2;ratioP2;P2;SDS_P1;SDS_P2;PMS_P1;PMS_P2;Temp;Humidity;BMP_temperature;BMP_pressure;BME280_temperature;BME280_humidity;BME280_pressure;Samples;Min_cycle;Max_cycle;Signal;HPM_P1;HPM_P2
2023/01/17 00:00:04;;;;;;;;;;;2.00;99.90;;;;;;5027788;28;20011;-74
2023/01/17 00:02:30;;;;;;;;;;;2.00;99.90;;;;;;5021572;28;20008;-75
2023/01/17 00:10:39;;;;;;;;;;;1.80;99.90;;;;;;5023504;28;19951;-75
2023/01/17 00:13:06;;;;;;;;;;;1.80;99.90;;;;;;5018973;28;19925;-77
2023/01/17 00:15:32;;;;;;;;;;;1.80;99.90;;;;;;5018364;28;20452;-77
2023/01/17 00:17:59;;;;;;;;;;;1.80;99.90;;;;;;5032202;28;20459;-75
2023/01/17 00:26:04;;;;;;;;;;;1.70;99.90;;;;;;5045159;28;19925;-75
2023/01/17 01:35:16;;;;;;;;;;;1.10;99.90;;;;;;5021879;28;20407;-74
2023/01/17 01:37:43;;;;;;;;;;;1.10;99.90;;;;;;5019338;28;20372;-75
2023/01/17 01:40:10;;;;;;;;;;;1.10;99.90;;;;;;5018819;28;20284;-74
2023/01/17 01:42:47;;;;;;;;;;;1.10;99.90;;;;;;5020418;28;19925;-74
2023/01/17 01:45:16;;;;;;;;;;;1.00;99.90;;;;;;5019790;28;19932;-75
2023/01/17 01:47:43;;;;;;;;;;;1.00;99.90;;;;;;5021160;28;19933;-73
2023/01/17 01:50:11;;;;;;;;;;;1.10;99.90;;;;;;5021056;28;19925;-73
2023/01/17 01:52:40;;;;;;;;;;;1.00;99.90;;;;;;5020562;28;19933;-75
2023/01/17 01:55:08;;;;;;;;;;;1.00;99.90;;;;;;5020800;28;19932;-75
2023/01/17 01:57:37;;;;;;;;;;;1.00;99.90;;;;;;5020198;28;20912;-74
2023/01/17 02:00:10;;;;;;;;;;;1.00;99.90;;;;;;5025819;28;20027;-75
2023/01/17 02:02:37;;;;;;;;;;;0.90;99.90;;;;;;5020937;28;19933;-75
2023/01/17 02:05:05;;;;;;;;;;;0.90;99.90;;;;;;5030954;28;20027;-74
2023/01/17 02:07:33;;;;;;;;;;;0.80;99.90;;;;;;5024750;28;19947;-74
2023/01/17 02:10:00;;;;;;;;;;;0.80;99.90;;;;;;5034048;28;19925;-73
2023/01/17 02:12:27;;;;;;;;;;;0.80;99.90;;;;;;5018785;28;19925;-75
2023/01/17 02:14:54;;;;;;;;;;;0.80;99.90;;;;;;5018960;28;20146;-74
2023/01/17 02:17:28;;;;;;;;;;;0.80;99.90;;;;;;5019872;28;19933;-75
2023/01/17 02:20:15;;;;;;;;;;;0.70;99.90;;;;;;5020344;28;19925;-74
2023/01/17 02:22:55;;;;;;;;;;;0.70;99.90;;;;;;5030386;28;19925;-74
2023/01/17 02:25:44;;;;;;;;;;;0.70;99.90;;;;;;5019180;28;19932;-74
2023/01/17 02:28:18;;;;;;;;;;;0.70;99.90;;;;;;5022414;28;19931;-74
2023/01/17 02:30:48;;;;;;;;;;;0.70;99.90;;;;;;5020875;28;19925;-75
2023/01/17 02:33:17;;;;;;;;;;;0.60;99.90;;;;;;5020010;28;19929;-75
2023/01/17 02:35:49;;;;;;;;;;;0.60;99.90;;;;;;5019205;28;19944;-74
2023/01/17 02:38:20;;;;;;;;;;;0.60;99.90;;;;;;5019012;28;20498;-74
2023/01/17 02:40:48;;;;;;;;;;;0.50;99.90;;;;;;5023412;28;19953;-74
2023/01/17 02:43:16;;;;;;;;;;;0.50;99.90;;;;;;5019525;28;19935;-74
2023/01/17 02:45:44;;;;;;;;;;;0.50;99.90;;;;;;5020100;28;19925;-73
2023/01/17 02:48:13;;;;;;;;;;;0.50;99.90;;;;;;5021327;28;20348;-73
2023/01/17 02:51:02;;;;;;;;;;;0.50;99.90;;;;;;5025681;28;19932;-74
2023/01/17 02:53:32;;;;;;;;;;;0.50;99.90;;;;;;5022734;28;19931;-75
2023/01/17 02:56:01;;;;;;;;;;;0.50;99.90;;;;;;5018815;28;19933;-75
2023/01/17 02:58:34;;;;;;;;;;;0.50;99.90;;;;;;5018999;28;19931;-75
2023/01/17 03:01:05;;;;;;;;;;;0.40;99.90;;;;;;5018038;28;20011;-75
2023/01/17 03:03:37;;;;;;;;;;;0.40;99.90;;;;;;5022616;28;20285;-75
2023/01/17 03:06:10;;;;;;;;;;;0.40;99.90;;;;;;5025706;28;19939;-74
2023/01/17 03:08:38;;;;;;;;;;;0.40;99.90;;;;;;5021492;28;19986;-75
2023/01/17 03:11:06;;;;;;;;;;;0.30;99.90;;;;;;5020468;28;19931;-75
2023/01/17 03:13:33;;;;;;;;;;;0.40;99.90;;;;;;5018276;28;19955;-75
2023/01/17 03:16:00;;;;;;;;;;;0.30;99.90;;;;;;5021488;28;19951;-75
2023/01/17 03:18:26;;;;;;;;;;;0.20;99.90;;;;;;5021777;28;19926;-76
2023/01/17 03:20:54;;;;;;;;;;;0.30;99.90;;;;;;5024697;28;19931;-76
2023/01/17 03:23:21;;;;;;;;;;;0.30;99.90;;;;;;5024739;28;19926;-76
2023/01/17 03:25:48;;;;;;;;;;;0.20;99.90;;;;;;5025375;28;19982;-76
2023/01/17 03:28:14;;;;;;;;;;;0.20;99.90;;;;;;5024846;28;19925;-76
2023/01/17 03:30:41;;;;;;;;;;;0.20;99.90;;;;;;5023387;28;20036;-76
2023/01/17 03:33:08;;;;;;;;;;;0.20;99.90;;;;;;5030881;28;20283;-76
2023/01/17 03:35:34;;;;;;;;;;;0.20;99.90;;;;;;5022709;28;19929;-76
2023/01/17 03:38:02;;;;;;;;;;;0.20;99.90;;;;;;5022907;28;20047;-74
2023/01/17 03:40:29;;;;;;;;;;;0.20;99.90;;;;;;5024570;28;19929;-76
2023/01/17 03:42:56;;;;;;;;;;;0.20;99.90;;;;;;5022880;28;19939;-76
2023/01/17 03:45:22;;;;;;;;;;;0.10;99.90;;;;;;5018709;28;19968;-76
2023/01/17 03:47:49;;;;;;;;;;;0.10;99.90;;;;;;5023023;28;20059;-76
2023/01/17 03:50:16;;;;;;;;;;;0.10;99.90;;;;;;5022421;28;19996;-76
2023/01/17 03:52:42;;;;;;;;;;;0.10;99.90;;;;;;5022163;28;20028;-77
2023/01/17 03:55:11;;;;;;;;;;;0.00;99.90;;;;;;5021473;28;20399;-75
2023/01/17 03:57:37;;;;;;;;;;;0.00;99.90;;;;;;5020150;28;19929;-76
2023/01/17 04:00:05;;;;;;;;;;;0.00;99.90;;;;;;5019472;28;19981;-76
2023/01/17 04:02:32;;;;;;;;;;;0.00;99.90;;;;;;5018465;28;20015;-77
2023/01/17 04:04:58;;;;;;;;;;;0.00;99.90;;;;;;5025274;28;19931;-76
2023/01/17 04:07:25;;;;;;;;;;;0.00;99.90;;;;;;5030017;28;20147;-76
2023/01/17 04:09:51;;;;;;;;;;;0.00;99.90;;;;;;5027582;28;20013;-75
2023/01/17 04:12:19;;;;;;;;;;;-0.10;99.90;;;;;;5021341;28;19955;-75
2023/01/17 04:14:46;;;;;;;;;;;-0.10;99.90;;;;;;5024551;28;19937;-75
2023/01/17 04:17:14;;;;;;;;;;;-0.10;99.90;;;;;;5021947;28;19994;-75
2023/01/17 04:19:40;;;;;;;;;;;-0.20;99.90;;;;;;5022795;28;19989;-76
2023/01/17 04:22:07;;;;;;;;;;;-0.20;99.90;;;;;;5027739;28;20303;-75
2023/01/17 04:24:34;;;;;;;;;;;-0.20;99.90;;;;;;5024498;28;19926;-75
2023/01/17 04:27:00;;;;;;;;;;;-0.20;99.90;;;;;;5027665;28;19935;-76
2023/01/17 04:29:28;;;;;;;;;;;-0.20;99.90;;;;;;5025263;28;19925;-76
2023/01/17 04:31:55;;;;;;;;;;;-0.20;99.90;;;;;;5027429;28;20364;-75
2023/01/17 04:34:22;;;;;;;;;;;-0.20;99.90;;;;;;5030662;28;20322;-75
2023/01/17 04:36:48;;;;;;;;;;;-0.30;99.90;;;;;;5022926;28;19929;-75
2023/01/17 04:39:15;;;;;;;;;;;-0.30;99.90;;;;;;5027033;28;19925;-76
2023/01/17 04:41:42;;;;;;;;;;;-0.30;99.90;;;;;;5025242;28;19925;-76
2023/01/17 04:44:09;;;;;;;;;;;-0.30;99.90;;;;;;5022718;28;19928;-75
2023/01/17 04:46:37;;;;;;;;;;;-0.30;99.90;;;;;;5018496;28;20406;-74
2023/01/17 04:49:04;;;;;;;;;;;-0.40;99.90;;;;;;5021030;28;19929;-75
2023/01/17 04:51:30;;;;;;;;;;;-0.30;99.90;;;;;;5022420;28;19996;-75
2023/01/17 04:53:57;;;;;;;;;;;-0.30;99.90;;;;;;5020585;28;19929;-76
2023/01/17 04:56:24;;;;;;;;;;;-0.30;99.90;;;;;;5025664;28;20020;-69
2023/01/17 04:58:50;;;;;;;;;;;-0.30;99.90;;;;;;5023455;28;20023;-76
2023/01/17 05:01:17;;;;;;;;;;;-0.30;99.90;;;;;;5028005;28;20082;-74
2023/01/17 05:03:45;;;;;;;;;;;-0.30;99.90;;;;;;5018590;28;20020;-75
2023/01/17 05:06:12;;;;;;;;;;;-0.30;99.90;;;;;;5028242;28;19925;-75
2023/01/17 05:08:38;;;;;;;;;;;-0.30;99.90;;;;;;5045029;28;19925;-75
2023/01/17 05:11:05;;;;;;;;;;;-0.30;99.90;;;;;;5028881;28;20020;-74
2023/01/17 05:13:32;;;;;;;;;;;-0.30;99.90;;;;;;5042679;28;19925;-75
2023/01/17 05:15:59;;;;;;;;;;;-0.30;99.90;;;;;;5030331;28;19925;-76
2023/01/17 05:18:25;;;;;;;;;;;-0.30;99.90;;;;;;5029019;28;19925;-76
2023/01/17 05:20:53;;;;;;;;;;;-0.30;99.90;;;;;;5018431;28;19925;-75
2023/01/17 05:23:20;;;;;;;;;;;-0.30;99.90;;;;;;5025610;28;20020;-76
2023/01/17 05:25:46;;;;;;;;;;;-0.30;99.90;;;;;;5030522;28;19925;-75
2023/01/17 05:28:13;;;;;;;;;;;-0.30;99.90;;;;;;5042877;28;19979;-75
2023/01/17 05:30:40;;;;;;;;;;;-0.30;99.90;;;;;;5034592;28;19932;-76
2023/01/17 05:33:08;;;;;;;;;;;-0.40;99.90;;;;;;5028586;28;19986;-76
2023/01/17 05:35:35;;;;;;;;;;;-0.40;99.90;;;;;;5030898;28;19968;-76
2023/01/17 05:38:03;;;;;;;;;;;-0.40;99.90;;;;;;5028732;28;19925;-71
2023/01/17 05:40:32;;;;;;;;;;;-0.40;99.90;;;;;;5027106;28;19972;-75
2023/01/17 05:42:59;;;;;;;;;;;-0.40;99.90;;;;;;5031107;28;19932;-75
2023/01/17 05:45:26;;;;;;;;;;;-0.40;99.90;;;;;;5028617;28;20012;-76
2023/01/17 05:47:54;;;;;;;;;;;-0.50;99.90;;;;;;5029869;28;19931;-75
2023/01/17 05:50:21;;;;;;;;;;;-0.50;99.90;;;;;;5028827;28;19982;-74
2023/01/17 05:52:49;;;;;;;;;;;-0.50;99.90;;;;;;5029060;28;19925;-75
2023/01/17 05:55:17;;;;;;;;;;;-0.50;99.90;;;;;;5026815;28;19925;-75
2023/01/17 05:57:43;;;;;;;;;;;-0.50;99.90;;;;;;5028981;28;19929;-76
2023/01/17 06:00:11;;;;;;;;;;;-0.60;99.90;;;;;;5032316;28;19931;-75
2023/01/17 06:02:37;;;;;;;;;;;-0.60;99.90;;;;;;5026799;28;19936;-76
2023/01/17 06:05:04;;;;;;;;;;;-0.70;99.90;;;;;;5024383;28;19932;-76
2023/01/17 06:07:31;;;;;;;;;;;-0.70;99.90;;;;;;5021375;28;19925;-76
2023/01/17 06:09:58;;;;;;;;;;;-0.80;99.90;;;;;;5027961;28;20291;-72
2023/01/17 06:12:26;;;;;;;;;;;-0.90;99.90;;;;;;5027958;28;20423;-71
2023/01/17 06:14:53;;;;;;;;;;;-0.80;99.90;;;;;;5028285;28;20343;-71
2023/01/17 06:17:19;;;;;;;;;;;-0.80;99.90;;;;;;5028032;28;19925;-72
2023/01/17 06:19:46;;;;;;;;;;;-0.90;99.90;;;;;;5028224;28;19925;-71
2023/01/17 06:22:13;;;;;;;;;;;-0.90;99.90;;;;;;5027430;28;20018;-71
2023/01/17 06:24:39;;;;;;;;;;;-0.90;99.90;;;;;;5028436;28;19931;-72
2023/01/17 06:27:08;;;;;;;;;;;-0.80;99.90;;;;;;5029656;28;20361;-71
2023/01/17 06:29:36;;;;;;;;;;;-0.90;99.90;;;;;;5017489;28;19925;-71
2023/01/17 06:32:02;;;;;;;;;;;-1.00;99.90;;;;;;5036586;28;19947;-72
2023/01/17 06:34:29;;;;;;;;;;;-1.10;99.90;;;;;;5041194;28;20441;-72
2023/01/17 06:36:56;;;;;;;;;;;-1.10;99.90;;;;;;5029417;28;19951;-73
2023/01/17 06:39:23;;;;;;;;;;;-1.20;99.90;;;;;;5027519;28;20016;-72
2023/01/17 06:41:53;;;;;;;;;;;-1.10;99.90;;;;;;5027655;27;19933;-73
2023/01/17 06:44:23;;;;;;;;;;;-1.00;99.90;;;;;;5033611;28;19981;-73
2023/01/17 06:46:51;;;;;;;;;;;-1.00;99.90;;;;;;5027581;28;19932;-74
2023/01/17 06:49:22;;;;;;;;;;;-1.00;99.90;;;;;;5037520;28;19925;-73
2023/01/17 06:51:49;;;;;;;;;;;-1.00;99.90;;;;;;5025338;28;19925;-73
2023/01/17 06:54:16;;;;;;;;;;;-0.90;99.90;;;;;;5020174;28;19926;-73
2023/01/17 06:56:42;;;;;;;;;;;-1.00;99.90;;;;;;5028279;28;20371;-72
2023/01/17 06:59:09;;;;;;;;;;;-1.00;99.90;;;;;;5019453;28;19932;-73
2023/01/17 07:01:36;;;;;;;;;;;-1.10;99.90;;;;;;5024903;28;19925;-70
2023/01/17 07:04:05;;;;;;;;;;;-1.10;99.90;;;;;;5024184;28;20307;-72
2023/01/17 07:06:31;;;;;;;;;;;-1.20;99.90;;;;;;5025774;28;20373;-73
2023/01/17 07:08:59;;;;;;;;;;;-1.20;99.90;;;;;;5017558;28;19933;-72
2023/01/17 07:11:26;;;;;;;;;;;-1.20;99.90;;;;;;5024240;27;19925;-72
2023/01/17 07:13:53;;;;;;;;;;;-1.20;99.90;;;;;;5033402;28;20435;-73
2023/01/17 07:16:20;;;;;;;;;;;-1.20;99.90;;;;;;5026476;28;19930;-72
2023/01/17 07:18:46;;;;;;;;;;;-1.20;99.90;;;;;;5022666;28;19937;-72
2023/01/17 07:21:14;;;;;;;;;;;-1.20;99.90;;;;;;5018586;28;20075;-76
2023/01/17 07:23:41;;;;;;;;;;;-1.10;99.90;;;;;;5022602;28;20410;-72
2023/01/17 07:26:08;;;;;;;;;;;-1.10;99.90;;;;;;5027452;28;20008;-75
2023/01/17 07:28:35;;;;;;;;;;;-1.00;99.90;;;;;;5018910;28;20570;-75
2023/01/17 07:31:04;;;;;;;;;;;-1.10;99.90;;;;;;5018990;28;19954;-75
2023/01/17 07:33:31;;;;;;;;;;;-1.00;99.90;;;;;;5019954;28;19943;-71
2023/01/17 07:35:58;;;;;;;;;;;-1.00;99.90;;;;;;5035259;28;19927;-72
2023/01/17 07:38:26;;;;;;;;;;;-1.00;99.90;;;;;;5042595;28;19926;-72
2023/01/17 07:40:52;;;;;;;;;;;-1.00;99.90;;;;;;5020165;28;19926;-75
2023/01/17 07:43:19;;;;;;;;;;;-1.00;99.90;;;;;;5035004;27;19971;-76
2023/01/17 07:45:48;;;;;;;;;;;-1.00;99.90;;;;;;5015402;28;19968;-76
2023/01/17 07:48:15;;;;;;;;;;;-1.00;99.90;;;;;;5020773;27;19925;-75
2023/01/17 07:50:41;;;;;;;;;;;-1.00;99.90;;;;;;5014109;28;19968;-76
2023/01/17 07:53:08;;;;;;;;;;;-1.00;99.90;;;;;;5018398;28;20377;-74
2023/01/17 07:55:37;;;;;;;;;;;-1.00;99.90;;;;;;5017980;28;19932;-76
2023/01/17 07:58:03;;;;;;;;;;;-1.00;99.90;;;;;;5019354;28;19944;-74
2023/01/17 08:00:30;;;;;;;;;;;-1.00;99.90;;;;;;5013291;28;19929;-74
2023/01/17 08:02:57;;;;;;;;;;;-1.00;99.90;;;;;;5022081;27;20186;-75
2023/01/17 08:05:24;;;;;;;;;;;-0.90;99.90;;;;;;5022693;27;19966;-74
2023/01/17 08:07:50;;;;;;;;;;;-0.90;99.90;;;;;;5013035;28;19937;-74
2023/01/17 08:10:17;;;;;;;;;;;-1.00;99.90;;;;;;5020934;28;19932;-75
2023/01/17 08:12:46;;;;;;;;;;;-0.90;99.90;;;;;;5022258;28;20021;-77
2023/01/17 08:15:13;;;;;;;;;;;-0.90;99.90;;;;;;5020057;28;20376;-75
2023/01/17 08:17:44;;;;;;;;;;;-0.90;99.90;;;;;;5020339;28;20027;-76
2023/01/17 08:20:11;;;;;;;;;;;-0.90;99.90;;;;;;5022008;28;19932;-75
2023/01/17 08:22:38;;;;;;;;;;;-0.80;99.90;;;;;;5015286;28;19979;-76
2023/01/17 08:25:05;;;;;;;;;;;-0.70;99.90;;;;;;5016885;28;20031;-76
2023/01/17 08:27:32;;;;;;;;;;;-0.70;99.90;;;;;;5016694;28;19960;-75
2023/01/17 08:30:00;;;;;;;;;;;-0.60;99.90;;;;;;5018802;28;20422;-75
2023/01/17 08:32:26;;;;;;;;;;;-0.60;99.90;;;;;;5015938;28;19925;-76
2023/01/17 08:34:55;;;;;;;;;;;-0.60;99.90;;;;;;5032828;28;20669;-76
2023/01/17 08:37:22;;;;;;;;;;;-0.50;99.90;;;;;;5016992;28;20217;-76
2023/01/17 08:39:48;;;;;;;;;;;-0.50;99.90;;;;;;5016516;28;19929;-75
2023/01/17 08:42:15;;;;;;;;;;;-0.40;99.90;;;;;;5043244;28;19937;-75
2023/01/17 08:44:42;;;;;;;;;;;0.50;99.90;;;;;;5020748;28;19925;-75
2023/01/17 08:47:11;;;;;;;;;;;1.90;99.90;;;;;;5020398;28;19986;-75
2023/01/17 08:49:37;;;;;;;;;;;3.20;99.90;;;;;;5016697;28;19969;-75
2023/01/17 08:52:05;;;;;;;;;;;4.20;99.90;;;;;;5024214;28;20346;-75
2023/01/17 08:54:31;;;;;;;;;;;5.00;99.90;;;;;;5031684;28;19936;-75
2023/01/17 08:56:58;;;;;;;;;;;5.50;99.90;;;;;;5018542;28;19925;-75
2023/01/17 08:59:25;;;;;;;;;;;5.40;99.90;;;;;;5020850;28;20019;-75
2023/01/17 09:01:51;;;;;;;;;;;5.30;99.90;;;;;;5025056;28;20425;-75
2023/01/17 09:04:19;;;;;;;;;;;5.30;99.90;;;;;;5021645;28;20040;-75
2023/01/17 09:06:47;;;;;;;;;;;5.60;99.90;;;;;;5022010;28;19947;-75
2023/01/17 09:09:15;;;;;;;;;;;6.20;99.90;;;;;;5020614;28;19931;-73
2023/01/17 09:11:41;;;;;;;;;;;6.70;99.90;;;;;;5022269;27;19985;-75
2023/01/17 09:14:08;;;;;;;;;;;6.80;99.90;;;;;;5024257;28;20312;-75
2023/01/17 09:16:35;;;;;;;;;;;6.70;99.90;;;;;;5024005;28;20045;-74
2023/01/17 09:19:01;;;;;;;;;;;6.90;99.90;;;;;;5026797;27;20009;-68
2023/01/17 09:21:29;;;;;;;;;;;7.00;99.70;;;;;;5027352;27;20244;-75
2023/01/17 09:23:56;;;;;;;;;;;7.20;98.40;;;;;;5026303;28;19930;-69
2023/01/17 09:26:24;;;;;;;;;;;7.00;98.10;;;;;;5024765;27;19929;-74
2023/01/17 09:28:50;;;;;;;;;;;6.60;98.20;;;;;;5028298;28;20235;-75
2023/01/17 09:31:19;;;;;;;;;;;5.80;99.10;;;;;;5027433;28;20013;-74
2023/01/17 09:33:46;;;;;;;;;;;6.00;99.90;;;;;;5027612;28;20384;-73
2023/01/17 09:36:12;;;;;;;;;;;6.00;99.90;;;;;;5026203;28;20043;-73
2023/01/17 09:38:41;;;;;;;;;;;4.90;99.90;;;;;;5031988;28;20015;-73
2023/01/17 09:41:20;;;;;;;;;;;3.70;99.90;;;;;;5029533;27;20356;-70
2023/01/17 09:43:48;;;;;;;;;;;3.00;99.90;;;;;;5027466;28;19986;-74
2023/01/17 09:46:21;;;;;;;;;;;2.40;99.90;;;;;;5024286;27;19931;-75
2023/01/17 09:48:49;;;;;;;;;;;2.10;99.90;;;;;;5027979;28;19944;-75
2023/01/17 09:51:18;;;;;;;;;;;1.90;99.90;;;;;;5025465;27;20310;-74
2023/01/17 09:53:46;;;;;;;;;;;1.90;99.90;;;;;;5021733;28;20025;-74
2023/01/17 09:56:16;;;;;;;;;;;1.80;99.90;;;;;;5023989;28;20311;-75
2023/01/17 09:58:46;;;;;;;;;;;1.80;99.90;;;;;;5016888;28;19936;-75
2023/01/17 10:01:18;;;;;;;;;;;1.80;99.90;;;;;;5017626;28;19933;-74
2023/01/17 10:03:51;;;;;;;;;;;1.80;99.90;;;;;;5016438;27;19933;-74
2023/01/17 10:06:25;;;;;;;;;;;1.80;99.90;;;;;;5019350;27;19932;-74
2023/01/17 10:09:10;;;;;;;;;;;1.80;99.90;;;;;;5021113;28;20408;-75
2023/01/17 10:11:45;;;;;;;;;;;1.70;99.90;;;;;;5018330;27;20466;-75
2023/01/17 10:14:27;;;;;;;;;;;1.70;99.90;;;;;;5030534;27;19936;-75
2023/01/17 10:16:57;;;;;;;;;;;1.70;99.90;;;;;;5026418;28;20410;-73
2023/01/17 10:19:35;;;;;;;;;;;1.80;99.90;;;;;;5021483;28;19943;-73
2023/01/17 10:22:11;;;;;;;;;;;1.80;99.90;;;;;;5024674;28;20000;-73
2023/01/17 10:25:04;;;;;;;;;;;1.80;99.90;;;;;;5036105;27;19968;-74
2023/01/17 10:27:34;;;;;;;;;;;1.90;99.90;;;;;;5015859;28;19929;-73
2023/01/17 10:30:01;;;;;;;;;;;1.90;99.90;;;;;;5020639;27;19929;-73
2023/01/17 10:32:29;;;;;;;;;;;2.00;99.90;;;;;;5022875;28;19925;-73
2023/01/17 10:34:58;;;;;;;;;;;2.00;99.90;;;;;;5024185;27;20306;-73
2023/01/17 10:37:27;;;;;;;;;;;2.10;99.90;;;;;;5021191;28;19925;-74
2023/01/17 10:39:56;;;;;;;;;;;2.10;99.90;;;;;;5017427;27;19976;-72
2023/01/17 10:42:25;;;;;;;;;;;2.10;99.90;;;;;;5020616;27;20295;-74
2023/01/17 10:45:00;;;;;;;;;;;2.20;99.90;;;;;;5019473;27;21449;-74
2023/01/17 10:47:28;;;;;;;;;;;2.30;99.90;;;;;;5018445;28;19977;-73
2023/01/17 10:49:57;;;;;;;;;;;2.30;99.90;;;;;;5013319;28;19926;-73
2023/01/17 10:52:30;;;;;;;;;;;2.40;99.90;;;;;;5025471;28;19933;-72
2023/01/17 10:55:03;;;;;;;;;;;2.30;99.90;;;;;;5020600;28;19972;-73
2023/01/17 10:57:34;;;;;;;;;;;2.40;99.90;;;;;;5026226;27;19925;-74
2023/01/17 11:00:16;;;;;;;;;;;2.40;99.90;;;;;;5028493;27;19936;-75
2023/01/17 11:02:46;;;;;;;;;;;2.40;99.90;;;;;;5020631;27;19933;-75
2023/01/17 11:05:17;;;;;;;;;;;2.50;99.90;;;;;;5028562;27;19925;-75
2023/01/17 11:07:56;;;;;;;;;;;2.70;99.90;;;;;;5017155;28;19925;-75
2023/01/17 11:10:35;;;;;;;;;;;2.80;99.90;;;;;;5021333;28;19932;-74
2023/01/17 11:13:03;;;;;;;;;;;2.90;99.90;;;;;;5022325;27;19930;-74
2023/01/17 11:15:32;;;;;;;;;;;3.00;99.90;;;;;;5017582;28;20076;-74
2023/01/17 11:18:03;;;;;;;;;;;3.00;99.90;;;;;;5022600;27;19932;-75
2023/01/17 11:20:33;;;;;;;;;;;3.00;99.90;;;;;;5019666;27;20300;-75
2023/01/17 11:23:03;;;;;;;;;;;3.00;99.90;;;;;;5023303;28;19925;-74
2023/01/17 11:25:31;;;;;;;;;;;3.00;99.90;;;;;;5028127;28;20009;-74
2023/01/17 11:28:00;;;;;;;;;;;3.10;99.90;;;;;;5023440;28;19945;-74
2023/01/17 11:30:28;;;;;;;;;;;3.10;99.90;;;;;;5019823;28;20370;-74
2023/01/17 11:32:57;;;;;;;;;;;3.20;99.90;;;;;;5030046;27;19925;-74
2023/01/17 11:35:25;;;;;;;;;;;3.30;99.90;;;;;;5022947;27;19925;-74
2023/01/17 11:38:07;;;;;;;;;;;3.30;99.90;;;;;;5054728;22;19932;-74
2023/01/17 11:40:36;;;;;;;;;;;3.40;99.90;;;;;;5056020;28;19967;-74
2023/01/17 11:43:05;;;;;;;;;;;3.40;99.90;;;;;;5062152;28;19925;-73
2023/01/17 11:45:32;;;;;;;;;;;3.50;99.90;;;;;;5066704;22;19928;-74
2023/01/17 11:50:30;;;;;;;;;;;3.70;99.90;;;;;;5049485;28;19932;-77
2023/01/17 11:53:04;;;;;;;;;;;3.70;99.90;;;;;;5062980;28;19937;-77
2023/01/17 11:55:31;;;;;;;;;;;3.70;99.90;;;;;;5058307;28;20611;-78
2023/01/17 11:57:58;;;;;;;;;;;3.70;99.90;;;;;;5056418;28;20015;-77
2023/01/17 12:00:28;;;;;;;;;;;3.70;99.90;;;;;;5063440;28;19931;-80
2023/01/17 12:03:14;;;;;;;;;;;3.70;99.90;;;;;;5054683;28;19939;-78
2023/01/17 12:05:50;;;;;;;;;;;3.90;99.90;;;;;;5055628;28;20092;-77
2023/01/17 12:08:22;;;;;;;;;;;3.90;99.90;;;;;;5056825;28;19939;-78
2023/01/17 12:10:53;;;;;;;;;;;4.00;99.90;;;;;;5058639;28;19930;-77
2023/01/17 12:16:30;;;;;;;;;;;4.00;99.90;;;;;;5059612;28;19931;-78
2023/01/17 12:19:04;;;;;;;;;;;4.00;99.90;;;;;;5054558;28;19925;-79
2023/01/17 12:21:40;;;;;;;;;;;4.00;99.90;;;;;;5058406;28;20268;-79
2023/01/17 12:24:19;;;;;;;;;;;4.00;99.90;;;;;;5057815;28;20006;-79
2023/01/17 12:26:50;;;;;;;;;;;3.90;99.90;;;;;;5058253;28;24243;-70
2023/01/17 12:29:32;;;;;;;;;;;4.00;99.90;;;;;;5053622;28;19943;-70
2023/01/17 12:32:08;;;;;;;;;;;4.10;99.90;;;;;;5055976;28;19985;-76
2023/01/17 12:34:39;;;;;;;;;;;4.00;99.90;;;;;;5057701;28;20015;-72
2023/01/17 12:37:13;;;;;;;;;;;4.10;99.90;;;;;;5051579;28;19932;-71
2023/01/17 12:39:42;;;;;;;;;;;4.20;99.90;;;;;;5060011;28;19986;-71
2023/01/17 12:42:12;;;;;;;;;;;4.10;99.90;;;;;;5059592;28;19924;-72
2023/01/17 12:44:44;;;;;;;;;;;4.10;99.90;;;;;;5056910;28;19929;-72
2023/01/17 12:47:13;;;;;;;;;;;4.00;99.90;;;;;;5056625;28;19924;-73
2023/01/17 12:49:42;;;;;;;;;;;4.10;99.90;;;;;;5064647;28;20325;-74
2023/01/17 12:52:13;;;;;;;;;;;4.00;99.90;;;;;;5068166;28;19974;-72
2023/01/17 12:54:42;;;;;;;;;;;4.10;99.90;;;;;;5071632;28;19925;-73
2023/01/17 12:57:13;;;;;;;;;;;4.10;99.90;;;;;;5064027;28;20434;-73
2023/01/17 12:59:42;;;;;;;;;;;4.10;99.90;;;;;;5053766;28;20440;-72
2023/01/17 13:02:14;;;;;;;;;;;4.00;99.90;;;;;;5062521;28;19931;-72
2023/01/17 13:04:44;;;;;;;;;;;4.10;99.90;;;;;;5062261;28;20388;-72
2023/01/17 13:07:15;;;;;;;;;;;3.70;99.90;;;;;;5062915;28;20019;-72
2023/01/17 13:09:44;;;;;;;;;;;3.70;99.90;;;;;;5060376;28;20403;-73
2023/01/17 13:12:13;;;;;;;;;;;3.80;99.90;;;;;;5057543;28;19924;-73
2023/01/17 13:14:39;;;;;;;;;;;3.80;99.90;;;;;;5059415;28;20294;-71
2023/01/17 13:17:13;;;;;;;;;;;3.90;99.90;;;;;;5060781;28;19924;-72
2023/01/17 13:19:43;;;;;;;;;;;3.90;99.90;;;;;;5057189;28;19956;-73
2023/01/17 13:22:16;;;;;;;;;;;3.80;99.50;;;;;;5059523;28;19925;-72
2023/01/17 13:24:47;;;;;;;;;;;3.90;98.90;;;;;;5061824;28;20384;-73
2023/01/17 13:27:34;;;;;;;;;;;3.90;98.80;;;;;;5062879;28;20019;-73
2023/01/17 13:30:10;;;;;;;;;;;3.80;97.60;;;;;;5056706;28;19924;-72
2023/01/17 13:32:49;;;;;;;;;;;3.80;97.50;;;;;;5059715;28;19925;-73
2023/01/17 13:35:21;;;;;;;;;;;3.90;98.30;;;;;;5066517;28;20227;-73
2023/01/17 13:37:53;;;;;;;;;;;3.90;97.70;;;;;;5054981;28;20070;-72
2023/01/17 13:40:28;;;;;;;;;;;3.80;98.00;;;;;;5059744;28;20417;-72
2023/01/17 13:42:56;;;;;;;;;;;3.70;97.80;;;;;;5069524;28;20018;-72
2023/01/17 13:45:23;;;;;;;;;;;3.70;97.60;;;;;;5061182;28;20007;-72
2023/01/17 13:47:51;;;;;;;;;;;3.60;98.00;;;;;;5057509;28;20735;-72
2023/01/17 13:50:36;;;;;;;;;;;3.50;98.10;;;;;;5058933;28;19955;-72
2023/01/17 13:53:18;;;;;;;;;;;3.60;98.30;;;;;;5062746;28;20067;-80
2023/01/17 13:55:52;;;;;;;;;;;3.70;97.70;;;;;;5065774;28;20384;-81
2023/01/17 13:58:28;;;;;;;;;;;3.60;96.70;;;;;;5056759;28;20168;-79
2023/01/17 14:00:54;;;;;;;;;;;3.70;97.40;;;;;;5064501;28;19939;-80
2023/01/17 14:03:40;;;;;;;;;;;3.70;97.80;;;;;;5056196;28;20019;-80
2023/01/17 14:06:27;;;;;;;;;;;3.60;96.30;;;;;;5064855;28;19925;-79
2023/01/17 14:08:54;;;;;;;;;;;3.60;95.90;;;;;;5055134;28;20624;-80
2023/01/17 14:11:22;;;;;;;;;;;3.70;95.70;;;;;;5061888;28;20294;-81
2023/01/17 14:13:50;;;;;;;;;;;3.60;95.80;;;;;;5059330;28;20423;-79
2023/01/17 14:16:25;;;;;;;;;;;3.70;95.60;;;;;;5062567;28;20383;-80
2023/01/17 14:18:52;;;;;;;;;;;3.70;96.00;;;;;;5067831;28;19924;-81
2023/01/17 14:21:21;;;;;;;;;;;3.80;95.80;;;;;;5061209;28;20432;-79
2023/01/17 14:23:49;;;;;;;;;;;3.70;95.30;;;;;;5061098;28;20395;-80
2023/01/17 14:26:31;;;;;;;;;;;3.60;95.30;;;;;;5058266;28;20003;-80
2023/01/17 14:29:20;;;;;;;;;;;3.50;95.10;;;;;;5045049;28;19932;-74
2023/01/17 14:31:48;;;;;;;;;;;3.50;96.20;;;;;;5063775;28;19936;-74
2023/01/17 14:34:21;;;;;;;;;;;3.40;95.80;;;;;;5069407;28;19924;-74
2023/01/17 14:36:48;;;;;;;;;;;3.40;96.50;;;;;;5053682;28;19959;-75
2023/01/17 14:39:22;;;;;;;;;;;3.40;97.00;;;;;;5053900;28;19987;-75
2023/01/17 14:41:48;;;;;;;;;;;3.30;97.20;;;;;;5062370;28;19925;-75
2023/01/17 14:44:17;;;;;;;;;;;3.40;97.60;;;;;;5057081;28;19924;-70
2023/01/17 14:46:46;;;;;;;;;;;3.40;97.40;;;;;;5056742;28;19986;-71
2023/01/17 14:49:23;;;;;;;;;;;3.40;96.50;;;;;;5059267;28;20011;-70
2023/01/17 14:51:59;;;;;;;;;;;3.30;96.00;;;;;;5058648;28;19931;-69
2023/01/17 14:54:26;;;;;;;;;;;3.30;96.40;;;;;;5051126;28;19932;-71
2023/01/17 14:57:14;;;;;;;;;;;3.30;96.00;;;;;;5052567;28;20281;-72
2023/01/17 14:59:45;;;;;;;;;;;3.20;95.70;;;;;;5052626;28;19925;-72
2023/01/17 15:02:22;;;;;;;;;;;3.20;97.30;;;;;;5052126;28;19929;-71
2023/01/17 15:04:53;;;;;;;;;;;3.20;97.50;;;;;;5062477;28;20329;-69
2023/01/17 15:07:21;;;;;;;;;;;3.10;98.00;;;;;;5056279;28;20559;-74
2023/01/17 15:09:48;;;;;;;;;;;3.00;98.60;;;;;;5064277;28;20018;-74
2023/01/17 15:12:15;;;;;;;;;;;3.00;99.10;;;;;;5055465;28;20354;-74
2023/01/17 15:14:45;;;;;;;;;;;2.90;99.10;;;;;;5061834;28;20299;-75
2023/01/17 15:17:17;;;;;;;;;;;2.80;98.90;;;;;;5057546;28;19933;-76
2023/01/17 15:19:44;;;;;;;;;;;2.70;98.40;;;;;;5055559;28;19928;-75
2023/01/17 15:22:11;;;;;;;;;;;2.70;99.30;;;;;;5059369;28;19928;-75
2023/01/17 15:24:40;;;;;;;;;;;2.60;99.60;;;;;;5060872;28;19925;-75
2023/01/17 15:27:07;;;;;;;;;;;2.60;99.10;;;;;;5058858;28;19924;-75
2023/01/17 15:29:35;;;;;;;;;;;2.60;99.40;;;;;;5058470;28;20015;-76
2023/01/17 15:32:04;;;;;;;;;;;2.60;99.00;;;;;;5059208;28;19967;-75
2023/01/17 15:34:32;;;;;;;;;;;2.50;99.20;;;;;;5058541;28;19924;-78
2023/01/17 15:37:00;;;;;;;;;;;2.50;99.90;;;;;;5058712;28;19924;-76
2023/01/17 15:39:29;;;;;;;;;;;2.50;99.70;;;;;;5056996;28;19929;-75
2023/01/17 15:41:57;;;;;;;;;;;2.50;99.90;;;;;;5053259;28;19935;-75
2023/01/17 15:44:26;;;;;;;;;;;2.30;99.90;;;;;;5055023;28;19925;-76
2023/01/17 15:46:53;;;;;;;;;;;2.30;99.90;;;;;;5057049;28;19924;-76
2023/01/17 15:49:22;;;;;;;;;;;2.20;99.90;;;;;;5058450;28;19930;-76
2023/01/17 15:51:50;;;;;;;;;;;2.10;99.90;;;;;;5059294;28;20479;-75
2023/01/17 15:54:43;;;;;;;;;;;2.00;99.90;;;;;;5054784;28;19938;-77
2023/01/17 15:57:35;;;;;;;;;;;1.90;99.90;;;;;;5036942;28;19943;-75
2023/01/17 16:00:05;;;;;;;;;;;1.80;99.90;;;;;;5047660;28;19971;-75
2023/01/17 16:02:42;;;;;;;;;;;1.80;99.90;;;;;;5061008;28;20350;-75